Terminal Aerodrome Forecast
Issued by NWS

Home | Current Version | Previous Version | Text Only | Print | Product List | Glossary On
Versions: 1 2 3 4 5 6 7 8 9 10 11 12 13 14 15 16 17 18 19 20 21 22
000
FTAK31 PAJN 201722
TAFAPG
TAF
PAPG 201722Z 2018/2118 VRB03KT P6SM OVC060
     FM210300 10005KT P6SM VCSH SCT030 BKN050 OVC070
     FM210900 11004KT 3SM -SN BKN030 OVC050
     FM211500 10006KT 2SM -SN SCT015 OVC025
      AMD LTD TO CLD VIS AND WIND 2106/2115=

USA.gov is the U.S. government's official web portal to all federal, state and local government web resources and services.